Time;durP1;ratioP1;P1;durP2;ratioP2;P2;SDS_P1;SDS_P2;PMS_P1;PMS_P2;Temp;Humidity;BMP_temperature;BMP_pressure;BME280_temperature;BME280_humidity;BME280_pressure;Samples;Min_cycle;Max_cycle;Signal;HPM_P1;HPM_P2
2022/02/05 00:02:16;;;;;;;26.07;24.37;;;15.60;69.80;;;;;;5030959;28;20487;-45
2022/02/05 00:04:43;;;;;;;26.00;24.70;;;15.60;69.90;;;;;;5063893;22;20942;-39
2022/02/05 00:07:10;;;;;;;25.93;24.50;;;15.50;70.10;;;;;;5051520;28;20448;-39
2022/02/05 00:09:56;;;;;;;25.93;24.33;;;15.50;70.40;;;;;;5051694;28;20878;-39
2022/02/05 00:12:37;;;;;;;25.60;24.20;;;15.50;70.40;;;;;;5051553;28;20448;-40
2022/02/05 00:15:25;;;;;;;25.97;24.47;;;15.50;70.60;;;;;;5031767;28;20489;-39
2022/02/05 00:39:58;;;;;;;23.70;22.50;;;15.40;70.80;;;;;;5031771;28;20471;-39
2022/02/05 00:42:31;;;;;;;24.50;23.20;;;15.40;70.60;;;;;;5031305;28;20455;-39
2022/02/05 00:44:58;;;;;;;22.87;21.67;;;15.40;70.80;;;;;;5031397;28;20448;-39
2022/02/05 00:47:26;;;;;;;23.40;22.20;;;15.40;70.60;;;;;;5031514;28;20453;-39
2022/02/05 00:49:58;;;;;;;23.83;22.53;;;15.40;71.00;;;;;;5031517;28;20984;-39
2022/02/05 00:52:25;;;;;;;23.53;22.23;;;15.40;71.20;;;;;;5033181;28;20961;-39
2022/02/05 00:55:01;;;;;;;23.00;21.90;;;15.50;70.70;;;;;;5035026;28;20909;-39
2022/02/05 01:00:18;;;;;;;22.87;21.77;;;15.50;71.10;;;;;;5034980;28;20974;-39
2022/02/05 01:02:45;;;;;;;23.10;21.90;;;15.40;70.80;;;;;;5034552;28;20442;-39
2022/02/05 01:05:12;;;;;;;23.90;22.70;;;15.40;71.30;;;;;;5034991;28;20437;-39
2022/02/05 01:07:40;;;;;;;23.30;22.20;;;15.30;71.10;;;;;;5034515;28;20878;-41
2022/02/05 01:10:07;;;;;;;22.90;21.80;;;15.30;71.40;;;;;;5035062;28;20433;-39
2022/02/05 01:12:38;;;;;;;22.50;21.20;;;15.30;71.70;;;;;;5034643;28;20449;-39
2022/02/05 01:15:06;;;;;;;22.97;21.87;;;15.40;71.80;;;;;;5034698;28;20539;-39
2022/02/05 01:17:38;;;;;;;23.50;22.07;;;15.40;71.60;;;;;;5034516;28;20452;-39
2022/02/05 01:22:48;;;;;;;22.70;21.70;;;15.30;71.90;;;;;;5034317;28;20425;-39
2022/02/05 01:25:20;;;;;;;22.97;21.87;;;15.30;72.20;;;;;;5034192;28;21025;-39
2022/02/05 01:27:52;;;;;;;23.17;21.97;;;15.30;72.50;;;;;;5034407;28;20445;-39
2022/02/05 01:30:24;;;;;;;22.60;21.33;;;15.30;72.80;;;;;;5034390;28;20477;-39
2022/02/05 01:33:05;;;;;;;22.37;21.27;;;15.30;72.40;;;;;;5033858;28;20540;-39
2022/02/05 01:35:40;;;;;;;22.60;21.50;;;15.30;73.10;;;;;;5034139;28;20491;-39
2022/02/05 01:49:49;;;;;;;22.63;21.57;;;15.20;73.90;;;;;;5034356;28;20765;-39
2022/02/05 01:52:21;;;;;;;21.93;20.93;;;15.20;73.10;;;;;;5033461;28;20873;-39
2022/02/05 01:55:07;;;;;;;21.80;20.80;;;15.20;73.70;;;;;;5033634;28;20519;-39
2022/02/05 02:06:11;;;;;;;22.07;20.97;;;15.20;74.10;;;;;;5013643;28;20417;-40
2022/02/05 02:14:25;;;;;;;21.50;20.50;;;15.20;74.20;;;;;;5029927;28;20833;-41
2022/02/05 02:19:50;;;;;;;22.60;21.40;;;15.20;73.80;;;;;;5033332;28;20429;-39
2022/02/05 02:22:24;;;;;;;22.13;21.13;;;15.10;74.00;;;;;;5033065;28;20449;-39
2022/02/05 02:25:01;;;;;;;22.37;21.00;;;15.10;74.30;;;;;;5033214;28;20827;-40
2022/02/05 02:27:35;;;;;;;21.80;20.73;;;15.20;73.80;;;;;;5032896;28;20449;-39
2022/02/05 02:30:08;;;;;;;21.57;20.57;;;15.20;73.60;;;;;;5033154;28;20456;-39
2022/02/05 02:32:38;;;;;;;21.87;20.57;;;15.10;73.80;;;;;;5033100;28;20895;-39
2022/02/05 02:35:10;;;;;;;21.30;20.30;;;15.10;74.20;;;;;;5032608;28;20526;-39
2022/02/05 02:37:47;;;;;;;22.50;21.30;;;15.10;73.80;;;;;;5032737;28;20950;-39
2022/02/05 02:40:24;;;;;;;21.07;20.17;;;15.10;73.70;;;;;;5033000;28;20897;-39
2022/02/05 02:42:55;;;;;;;21.37;20.40;;;15.10;74.20;;;;;;5032494;28;20449;-39
2022/02/05 02:45:22;;;;;;;21.27;20.27;;;15.10;74.00;;;;;;5032641;28;20500;-39
2022/02/05 02:47:49;;;;;;;20.93;20.03;;;15.10;74.10;;;;;;5032598;28;20446;-39
2022/02/05 02:50:28;;;;;;;21.47;20.47;;;15.10;74.00;;;;;;5032598;28;20818;-40
2022/02/05 02:58:29;;;;;;;22.00;20.87;;;15.00;74.20;;;;;;5032801;28;20421;-39
2022/02/05 03:00:58;;;;;;;21.50;20.50;;;15.00;74.00;;;;;;5032328;28;20552;-39
2022/02/05 03:03:26;;;;;;;21.47;20.40;;;15.00;74.40;;;;;;5032252;28;20481;-39
2022/02/05 03:05:53;;;;;;;20.90;20.00;;;15.10;74.20;;;;;;5032242;28;20445;-39
2022/02/05 03:08:21;;;;;;;21.70;20.60;;;15.00;74.00;;;;;;5032206;28;20465;-39
2022/02/05 03:10:49;;;;;;;21.70;20.70;;;15.00;73.90;;;;;;5032270;28;20471;-39
2022/02/05 03:13:15;;;;;;;21.10;20.20;;;15.00;73.70;;;;;;5031902;28;20470;-39
2022/02/05 03:15:43;;;;;;;21.70;20.60;;;15.00;74.30;;;;;;5031299;28;20485;-39
2022/02/05 03:18:14;;;;;;;21.07;19.97;;;15.00;74.20;;;;;;5032052;28;20453;-39
2022/02/05 03:20:40;;;;;;;20.40;19.50;;;15.00;73.90;;;;;;5032300;28;20930;-39
2022/02/05 03:23:07;;;;;;;21.07;20.17;;;15.10;73.90;;;;;;5031738;28;20476;-39
2022/02/05 03:25:35;;;;;;;21.17;20.17;;;15.00;73.90;;;;;;5032019;28;20444;-40
2022/02/05 03:28:03;;;;;;;20.90;20.00;;;14.90;74.10;;;;;;5032034;28;20445;-39
2022/02/05 03:30:30;;;;;;;20.97;20.03;;;15.00;74.20;;;;;;5031894;28;20445;-39
2022/02/05 03:32:58;;;;;;;20.83;19.93;;;14.90;74.40;;;;;;5031613;28;20481;-40
2022/02/05 03:35:25;;;;;;;21.10;20.10;;;14.90;74.00;;;;;;5031668;28;20496;-40
2022/02/05 03:37:52;;;;;;;21.90;20.80;;;14.90;74.50;;;;;;5031790;28;20536;-39
2022/02/05 03:40:19;;;;;;;21.37;20.27;;;14.90;73.90;;;;;;5031829;28;20448;-39
2022/02/05 03:42:47;;;;;;;20.27;19.37;;;14.90;73.90;;;;;;5031594;28;20453;-39
2022/02/05 03:45:15;;;;;;;21.37;20.37;;;14.90;74.60;;;;;;5031671;28;20528;-39
2022/02/05 03:47:42;;;;;;;21.20;20.03;;;14.90;74.90;;;;;;5031950;28;20449;-39
2022/02/05 03:50:09;;;;;;;20.90;19.90;;;14.90;74.50;;;;;;5031802;28;20441;-39
2022/02/05 03:52:37;;;;;;;20.30;19.40;;;14.90;74.10;;;;;;5031336;28;20449;-40
2022/02/05 03:55:05;;;;;;;21.13;20.13;;;14.90;74.10;;;;;;5011830;28;21015;-40
2022/02/05 03:57:32;;;;;;;21.17;20.27;;;14.90;73.70;;;;;;5011671;28;20450;-39
2022/02/05 04:00:02;;;;;;;20.70;19.80;;;14.90;74.00;;;;;;5011875;28;20450;-39
2022/02/05 04:02:29;;;;;;;20.60;19.70;;;14.90;74.30;;;;;;5023665;28;20460;-39
2022/02/05 04:04:56;;;;;;;21.70;20.50;;;14.90;73.80;;;;;;5031819;28;20461;-39
2022/02/05 04:07:24;;;;;;;20.70;19.80;;;14.80;73.50;;;;;;5031425;28;20800;-39
2022/02/05 04:09:57;;;;;;;21.20;20.17;;;14.80;74.00;;;;;;5031432;28;20454;-40
2022/02/05 04:17:51;;;;;;;20.13;19.23;;;14.90;73.80;;;;;;5031478;28;20419;-39
2022/02/05 04:20:17;;;;;;;20.30;19.40;;;14.80;74.00;;;;;;5031478;28;20456;-39
2022/02/05 04:22:44;;;;;;;20.87;19.97;;;14.80;74.10;;;;;;5031090;28;20445;-40
2022/02/05 04:25:12;;;;;;;20.60;19.70;;;14.80;74.20;;;;;;5031491;28;20823;-39
2022/02/05 04:27:39;;;;;;;20.77;19.80;;;14.80;74.10;;;;;;5035193;28;20449;-39
2022/02/05 04:30:08;;;;;;;20.77;19.80;;;14.70;74.20;;;;;;5035236;28;20452;-39
2022/02/05 04:32:35;;;;;;;19.80;19.00;;;14.70;74.90;;;;;;5034888;28;20472;-39
2022/02/05 04:35:02;;;;;;;20.50;19.60;;;14.80;74.60;;;;;;5034980;28;20476;-39
2022/02/05 04:37:30;;;;;;;20.60;19.70;;;14.80;74.30;;;;;;5034706;28;20822;-40
2022/02/05 04:40:07;;;;;;;20.77;19.87;;;14.70;75.10;;;;;;5035147;28;20871;-39
2022/02/05 04:42:43;;;;;;;20.47;19.57;;;14.70;75.00;;;;;;5034774;28;20887;-39
2022/02/05 04:45:40;;;;;;;20.47;19.57;;;14.70;75.30;;;;;;5035121;28;20519;-39
2022/02/05 04:53:45;;;;;;;21.20;20.00;;;14.70;76.60;;;;;;5034333;28;20457;-39
2022/02/05 04:56:22;;;;;;;21.00;20.10;;;14.70;77.20;;;;;;5034526;28;20485;-39
2022/02/05 05:01:46;;;;;;;20.90;20.00;;;14.70;76.70;;;;;;5025752;28;20437;-39
2022/02/05 05:04:24;;;;;;;21.30;20.30;;;14.70;77.10;;;;;;5034489;28;20480;-39
2022/02/05 05:09:41;;;;;;;21.27;20.30;;;14.70;76.60;;;;;;4990932;28;20528;-39
2022/02/05 05:12:28;;;;;;;21.30;20.23;;;14.70;77.30;;;;;;5034499;28;20460;-39
2022/02/05 05:20:39;;;;;;;21.00;19.90;;;14.60;76.80;;;;;;4992716;28;20442;-39
2022/02/05 05:23:06;;;;;;;22.07;21.10;;;14.60;76.70;;;;;;5012234;28;20696;-39
2022/02/05 05:25:33;;;;;;;20.70;19.80;;;14.60;78.00;;;;;;5034009;28;20923;-39
2022/02/05 05:28:00;;;;;;;20.60;19.70;;;14.60;78.00;;;;;;5034430;28;20449;-39
2022/02/05 05:30:26;;;;;;;21.20;20.20;;;14.60;77.20;;;;;;5033990;28;20456;-39
2022/02/05 05:32:55;;;;;;;20.43;19.53;;;14.60;77.70;;;;;;5033991;28;20469;-39
2022/02/05 05:35:21;;;;;;;21.47;20.37;;;14.60;78.50;;;;;;5033901;28;20485;-39
2022/02/05 05:37:52;;;;;;;20.50;19.60;;;14.60;78.40;;;;;;5033344;28;20454;-39
2022/02/05 05:40:19;;;;;;;20.70;19.80;;;14.60;78.70;;;;;;5033393;28;20453;-39
2022/02/05 05:42:52;;;;;;;20.60;19.70;;;14.50;79.20;;;;;;5033913;28;20445;-41
2022/02/05 05:45:34;;;;;;;20.80;19.80;;;14.60;78.60;;;;;;5033875;28;20505;-39
2022/02/05 05:48:08;;;;;;;21.80;20.63;;;14.50;78.30;;;;;;5033990;28;20446;-39
2022/02/05 05:50:58;;;;;;;20.80;19.90;;;14.70;81.50;;;;;;5033759;28;20779;-39
2022/02/05 05:53:24;;;;;;;21.50;20.60;;;15.40;79.10;;;;;;5033698;28;20523;-39
2022/02/05 05:55:51;;;;;;;20.90;20.00;;;15.90;76.10;;;;;;5033508;28;20481;-39
2022/02/05 05:58:19;;;;;;;22.00;20.70;;;16.20;74.60;;;;;;5033571;28;20449;-39
2022/02/05 06:00:49;;;;;;;21.47;20.27;;;16.60;73.60;;;;;;5033096;28;20449;-40
2022/02/05 06:03:17;;;;;;;20.80;19.90;;;17.00;71.30;;;;;;5034072;28;20574;-41
2022/02/05 06:05:44;;;;;;;21.87;20.87;;;17.40;69.50;;;;;;5033343;28;20445;-41
2022/02/05 06:08:11;;;;;;;22.10;21.10;;;17.70;66.90;;;;;;5033422;28;20448;-40
2022/02/05 06:10:38;;;;;;;22.37;21.27;;;17.90;65.30;;;;;;5033465;28;20453;-40
2022/02/05 06:13:05;;;;;;;22.17;21.17;;;18.10;64.50;;;;;;5033225;28;20461;-40
2022/02/05 06:15:31;;;;;;;21.93;20.93;;;18.30;63.00;;;;;;5032604;28;20477;-41
2022/02/05 06:17:58;;;;;;;21.60;20.50;;;18.50;61.80;;;;;;5033054;28;20452;-40
2022/02/05 06:20:26;;;;;;;21.60;20.53;;;18.50;60.60;;;;;;5033310;28;20445;-42
2022/02/05 06:22:53;;;;;;;22.73;21.50;;;18.60;59.80;;;;;;5033131;28;20477;-43
2022/02/05 06:25:20;;;;;;;21.80;20.80;;;18.70;59.50;;;;;;5032936;28;20939;-41
2022/02/05 06:27:47;;;;;;;22.20;21.00;;;18.70;58.70;;;;;;5032790;28;20441;-42
2022/02/05 06:30:14;;;;;;;21.80;20.80;;;18.80;58.80;;;;;;5033095;28;20452;-42
2022/02/05 06:32:42;;;;;;;22.43;21.33;;;18.70;58.50;;;;;;5032958;28;20894;-40
2022/02/05 06:35:10;;;;;;;21.53;20.53;;;18.80;58.50;;;;;;5032901;28;20449;-41
2022/02/05 06:37:38;;;;;;;22.13;21.10;;;18.80;58.30;;;;;;5032364;28;20982;-40
2022/02/05 06:40:07;;;;;;;22.73;21.57;;;18.80;57.80;;;;;;5032844;28;20938;-40
2022/02/05 06:42:33;;;;;;;21.63;20.63;;;18.80;57.60;;;;;;5032962;28;20450;-41
2022/02/05 06:45:00;;;;;;;24.37;23.47;;;18.90;57.50;;;;;;5032769;28;20441;-40
2022/02/05 06:47:27;;;;;;;24.00;23.10;;;18.90;57.00;;;;;;5032472;28;20819;-42
2022/02/05 06:49:53;;;;;;;31.10;30.00;;;18.90;57.10;;;;;;5031764;28;20441;-40
2022/02/05 06:52:20;;;;;;;29.40;28.40;;;18.90;57.10;;;;;;5032597;28;20445;-40
2022/02/05 06:54:48;;;;;;;32.43;31.20;;;18.90;56.70;;;;;;5032528;28;20469;-40
2022/02/05 06:57:15;;;;;;;31.83;30.63;;;18.90;56.40;;;;;;5032075;28;20480;-41
2022/02/05 06:59:42;;;;;;;33.60;32.10;;;18.90;56.10;;;;;;5032219;28;20965;-40
2022/02/05 07:02:08;;;;;;;33.93;32.73;;;18.90;56.20;;;;;;5032252;28;20453;-40
2022/02/05 07:04:36;;;;;;;33.33;32.13;;;18.90;55.90;;;;;;5032130;28;20473;-40
2022/02/05 07:07:03;;;;;;;33.80;32.60;;;18.80;55.80;;;;;;5031909;28;20442;-42
2022/02/05 07:09:29;;;;;;;33.97;32.83;;;18.80;55.90;;;;;;5032203;28;20460;-41
2022/02/05 07:11:59;;;;;;;32.87;31.67;;;18.80;56.10;;;;;;5032225;28;20445;-41
2022/02/05 07:14:31;;;;;;;30.30;29.13;;;18.70;55.90;;;;;;5032105;28;20838;-41
2022/02/05 07:17:04;;;;;;;32.57;31.37;;;18.70;55.70;;;;;;5031769;28;20843;-40
2022/02/05 07:19:42;;;;;;;30.30;29.30;;;18.70;55.60;;;;;;5032105;28;20496;-43
2022/02/05 07:22:09;;;;;;;32.30;31.00;;;18.70;55.80;;;;;;5032175;28;20461;-39
2022/02/05 07:24:56;;;;;;;31.70;30.60;;;18.70;55.80;;;;;;5032080;28;20986;-39
2022/02/05 07:30:09;;;;;;;29.23;28.13;;;19.00;56.30;;;;;;5032447;28;20444;-39
2022/02/05 07:32:36;;;;;;;28.53;27.53;;;19.30;56.70;;;;;;5031169;28;20449;-39
2022/02/05 07:35:04;;;;;;;27.37;26.37;;;19.70;56.30;;;;;;5032064;28;20445;-41
2022/02/05 07:37:30;;;;;;;29.37;28.20;;;20.10;55.50;;;;;;5031910;28;20871;-40
2022/02/05 07:39:57;;;;;;;34.00;32.50;;;20.30;55.00;;;;;;5032099;28;20452;-40
2022/02/05 07:42:26;;;;;;;33.43;31.53;;;20.60;54.40;;;;;;5031944;28;20442;-40
2022/02/05 07:44:53;;;;;;;32.83;30.83;;;20.70;53.70;;;;;;5031945;28;20470;-39
2022/02/05 07:47:22;;;;;;;39.60;37.60;;;20.70;53.00;;;;;;5031721;28;20442;-40
2022/02/05 07:49:49;;;;;;;40.00;37.60;;;20.80;53.20;;;;;;5031736;28;20460;-42
2022/02/05 07:52:16;;;;;;;37.10;34.60;;;21.00;53.80;;;;;;5031615;28;20449;-41
2022/02/05 07:54:43;;;;;;;41.10;38.50;;;21.00;54.30;;;;;;5031692;28;20471;-43
2022/02/05 07:57:10;;;;;;;37.93;35.70;;;21.00;54.70;;;;;;5031416;28;20575;-41
2022/02/05 07:59:40;;;;;;;43.87;41.27;;;21.10;54.70;;;;;;5031497;28;20441;-44
2022/02/05 08:02:08;;;;;;;42.70;40.30;;;21.10;55.10;;;;;;5031890;28;20449;-43
2022/02/05 08:04:35;;;;;;;40.37;37.90;;;21.20;55.70;;;;;;5031544;28;20534;-43
2022/02/05 08:07:03;;;;;;;39.80;37.40;;;21.20;55.70;;;;;;5031143;28;20445;-40
2022/02/05 08:09:44;;;;;;;38.57;36.20;;;21.20;56.60;;;;;;5031916;28;20441;-42
2022/02/05 08:12:14;;;;;;;42.90;40.00;;;21.40;56.20;;;;;;5031722;28;20957;-44
2022/02/05 08:14:46;;;;;;;39.33;37.13;;;21.50;56.20;;;;;;5031453;28;20547;-39
2022/02/05 08:17:19;;;;;;;39.63;36.90;;;21.70;55.60;;;;;;5031358;28;20477;-40
2022/02/05 08:19:46;;;;;;;36.13;33.53;;;21.80;55.20;;;;;;5031657;28;20449;-45
2022/02/05 08:22:13;;;;;;;41.00;38.53;;;21.90;55.20;;;;;;5031757;28;20495;-42
2022/02/05 08:24:40;;;;;;;41.60;38.80;;;21.90;54.90;;;;;;5031593;28;20883;-41
2022/02/05 08:27:08;;;;;;;43.22;40.63;;;21.80;54.80;;;;;;5031069;28;20512;-39
2022/02/05 08:29:38;;;;;;;41.83;39.27;;;21.80;55.10;;;;;;5031385;28;20245;-40
2022/02/05 08:32:07;;;;;;;36.17;33.70;;;22.00;54.70;;;;;;5030884;28;20855;-40
2022/02/05 08:34:34;;;;;;;34.93;32.90;;;22.20;54.50;;;;;;5031239;28;20473;-41
2022/02/05 08:37:01;;;;;;;42.00;39.40;;;22.20;54.10;;;;;;5030661;28;20813;-39
2022/02/05 08:39:28;;;;;;;38.97;36.77;;;22.20;53.60;;;;;;5031387;28;20445;-41
2022/02/05 08:41:55;;;;;;;36.77;34.73;;;22.20;53.40;;;;;;5030950;28;20453;-40
2022/02/05 08:44:22;;;;;;;37.33;35.43;;;22.40;53.50;;;;;;5031242;28;20672;-40
2022/02/05 08:46:48;;;;;;;37.97;35.87;;;22.40;52.60;;;;;;5031323;28;20442;-40
2022/02/05 08:49:17;;;;;;;37.80;35.90;;;22.40;52.60;;;;;;5031251;28;20449;-41
2022/02/05 08:51:43;;;;;;;32.75;30.92;;;22.30;52.20;;;;;;5030510;28;20453;-40
2022/02/05 08:54:10;;;;;;;40.47;38.33;;;22.40;52.40;;;;;;5031301;28;20243;-41
2022/02/05 08:56:37;;;;;;;39.17;37.10;;;22.50;52.40;;;;;;5030491;28;20481;-41
2022/02/05 08:59:04;;;;;;;39.63;37.63;;;22.70;51.60;;;;;;5031315;28;20472;-40
2022/02/05 09:01:43;;;;;;;43.10;41.00;;;22.70;51.50;;;;;;5031177;28;20453;-40
2022/02/05 09:04:18;;;;;;;40.57;38.47;;;22.80;51.60;;;;;;5031206;28;20481;-46
2022/02/05 09:06:47;;;;;;;29.43;27.87;;;22.90;51.30;;;;;;5030542;28;20536;-46
2022/02/05 09:09:22;;;;;;;32.77;31.07;;;22.90;50.80;;;;;;5030775;28;20788;-41
2022/02/05 09:11:55;;;;;;;36.30;34.50;;;22.80;51.00;;;;;;5031241;28;20507;-41
2022/02/05 09:14:32;;;;;;;43.50;40.80;;;22.80;51.20;;;;;;5034269;28;20477;-39
2022/02/05 09:16:59;;;;;;;37.00;34.87;;;22.90;51.10;;;;;;5034361;28;20484;-41
2022/02/05 09:19:28;;;;;;;36.57;34.00;;;22.90;50.90;;;;;;5034116;28;20456;-40
2022/02/05 09:21:56;;;;;;;34.97;32.97;;;22.90;51.30;;;;;;5034561;28;20456;-43
2022/02/05 09:24:24;;;;;;;38.10;35.80;;;23.10;50.80;;;;;;5033908;28;20475;-41
2022/02/05 09:26:58;;;;;;;33.63;31.83;;;23.40;49.80;;;;;;5034200;28;20441;-41
2022/02/05 09:29:25;;;;;;;37.37;35.33;;;23.30;49.60;;;;;;5034147;28;20452;-43
2022/02/05 09:31:52;;;;;;;31.40;29.67;;;23.20;49.60;;;;;;5030947;28;20524;-41
2022/02/05 09:34:20;;;;;;;35.53;33.50;;;23.40;49.60;;;;;;5030717;28;20465;-40
2022/02/05 09:36:47;;;;;;;38.30;36.40;;;23.40;49.50;;;;;;5033576;28;20477;-41
2022/02/05 09:39:16;;;;;;;36.43;34.73;;;23.40;49.40;;;;;;5034056;28;20454;-41
2022/02/05 09:41:45;;;;;;;36.87;34.80;;;23.40;49.10;;;;;;5034135;28;20452;-41
2022/02/05 09:44:12;;;;;;;31.73;30.23;;;23.40;48.90;;;;;;5033628;28;20473;-41
2022/02/05 09:46:40;;;;;;;32.17;30.40;;;23.40;48.50;;;;;;5033616;28;20946;-41
2022/02/05 09:49:07;;;;;;;31.60;30.00;;;23.50;48.50;;;;;;5033901;28;20449;-41
2022/02/05 09:51:40;;;;;;;35.00;33.23;;;23.60;48.00;;;;;;5033963;28;20445;-41
2022/02/05 09:54:08;;;;;;;40.57;38.83;;;23.40;47.90;;;;;;5033590;28;21002;-41
2022/02/05 09:56:39;;;;;;;32.83;31.30;;;23.50;48.00;;;;;;5033591;28;20481;-41
2022/02/05 09:59:06;;;;;;;30.60;29.00;;;23.70;48.60;;;;;;5033719;28;20479;-40
2022/02/05 10:01:35;;;;;;;32.67;30.77;;;23.80;47.60;;;;;;5033441;28;20445;-40
2022/02/05 10:04:06;;;;;;;37.70;35.93;;;23.80;47.50;;;;;;5032980;28;20473;-41
2022/02/05 10:06:39;;;;;;;34.90;33.33;;;23.90;47.50;;;;;;5033387;28;20445;-41
2022/02/05 10:09:09;;;;;;;31.47;29.97;;;23.80;47.60;;;;;;5033556;28;20449;-40
2022/02/05 10:11:49;;;;;;;32.40;31.03;;;23.80;47.30;;;;;;5033377;28;20442;-40
2022/02/05 10:14:22;;;;;;;34.83;33.30;;;23.90;46.30;;;;;;5033467;28;20457;-40
2022/02/05 10:16:51;;;;;;;33.80;32.10;;;23.90;45.80;;;;;;5032974;28;20476;-40
2022/02/05 10:19:18;;;;;;;34.03;32.43;;;23.90;45.70;;;;;;5033429;28;20445;-40
2022/02/05 10:21:45;;;;;;;29.13;27.53;;;23.90;46.20;;;;;;5032864;28;20453;-40
2022/02/05 10:24:13;;;;;;;31.90;29.90;;;23.90;46.50;;;;;;5032854;28;20465;-38
2022/02/05 10:26:41;;;;;;;31.93;30.00;;;23.90;47.50;;;;;;5032968;28;20507;-40
2022/02/05 10:29:10;;;;;;;31.30;29.50;;;23.90;48.10;;;;;;5033108;28;20449;-40
2022/02/05 10:32:00;;;;;;;34.23;32.40;;;23.90;49.10;;;;;;5032796;28;20463;-40
2022/02/05 10:34:29;;;;;;;38.20;35.50;;;23.90;50.00;;;;;;5032951;28;20834;-42
2022/02/05 10:37:11;;;;;;;34.50;32.20;;;24.10;51.40;;;;;;5032698;28;20477;-43
2022/02/05 10:39:53;;;;;;;31.67;29.87;;;24.20;51.80;;;;;;5032749;28;20453;-42
2022/02/05 10:45:09;;;;;;;32.57;30.23;;;24.50;52.20;;;;;;5032688;28;20436;-42
2022/02/05 10:47:49;;;;;;;33.63;31.33;;;24.60;51.30;;;;;;5032635;28;20807;-43
2022/02/05 10:50:18;;;;;;;34.97;32.97;;;24.60;51.00;;;;;;5032471;28;20448;-42
2022/02/05 10:52:51;;;;;;;33.27;31.57;;;24.50;50.80;;;;;;5032120;28;20452;-42
2022/02/05 10:55:23;;;;;;;34.33;32.43;;;24.60;50.60;;;;;;5032655;28;20549;-43
2022/02/05 10:58:12;;;;;;;35.80;33.87;;;24.50;50.60;;;;;;5032434;28;20488;-43
2022/02/05 11:06:09;;;;;;;33.53;31.63;;;24.70;50.10;;;;;;5032481;28;20471;-42
2022/02/05 11:08:36;;;;;;;33.80;32.03;;;24.90;49.60;;;;;;5032178;28;20456;-42
2022/02/05 11:19:24;;;;;;;29.53;27.93;;;24.90;48.60;;;;;;5032380;28;20433;-42
2022/02/05 11:21:51;;;;;;;25.58;24.17;;;25.00;48.00;;;;;;5031293;28;20464;-42
2022/02/05 11:24:19;;;;;;;31.77;29.80;;;25.00;48.10;;;;;;5032908;28;20604;-41
2022/02/05 11:26:46;;;;;;;29.20;27.83;;;25.00;48.30;;;;;;5032103;28;20445;-41
2022/02/05 11:29:28;;;;;;;28.37;26.90;;;25.20;48.50;;;;;;5032233;28;20456;-41
2022/02/05 11:32:16;;;;;;;29.03;27.73;;;25.40;48.30;;;;;;5032366;28;20444;-42
2022/02/05 11:34:50;;;;;;;30.90;29.50;;;25.60;47.80;;;;;;5032121;28;20469;-44
2022/02/05 11:37:18;;;;;;;32.97;31.47;;;25.70;47.00;;;;;;5031216;28;20568;-43
2022/02/05 11:39:47;;;;;;;30.20;28.80;;;25.70;46.80;;;;;;5031840;28;20460;-44
2022/02/05 11:42:31;;;;;;;31.03;29.70;;;25.70;46.80;;;;;;5031743;28;20647;-45
2022/02/05 11:45:01;;;;;;;32.87;31.40;;;25.80;46.80;;;;;;5032225;28;20449;-44
2022/02/05 11:47:33;;;;;;;33.67;32.07;;;25.80;46.20;;;;;;5031910;28;20812;-43
2022/02/05 11:50:29;;;;;;;33.80;32.20;;;26.00;46.10;;;;;;5031580;28;20446;-44
2022/02/05 11:52:58;;;;;;;31.10;29.50;;;26.00;46.00;;;;;;5031759;28;20465;-43
2022/02/05 11:55:34;;;;;;;29.02;27.75;;;25.90;45.90;;;;;;5030660;28;20795;-42
2022/02/05 11:58:02;;;;;;;38.77;37.13;;;25.90;45.70;;;;;;5031441;28;20309;-44
2022/02/05 12:00:34;;;;;;;35.40;33.83;;;26.00;45.80;;;;;;5031714;28;20460;-44
2022/02/05 12:03:17;;;;;;;34.67;33.33;;;26.10;45.60;;;;;;5031771;28;20481;-45
2022/02/05 12:05:54;;;;;;;30.37;29.17;;;26.10;45.20;;;;;;5031427;28;20445;-44
2022/02/05 12:08:28;;;;;;;33.47;32.13;;;26.10;45.20;;;;;;5031852;28;20448;-43
2022/02/05 12:10:57;;;;;;;32.87;31.47;;;26.00;45.30;;;;;;5031605;28;20808;-43
2022/02/05 12:13:27;;;;;;;33.50;32.07;;;25.90;45.40;;;;;;5031074;28;20473;-44
2022/02/05 12:16:21;;;;;;;34.30;32.90;;;25.80;45.30;;;;;;5031525;28;20446;-43
2022/02/05 12:19:14;;;;;;;32.07;30.43;;;25.90;45.40;;;;;;4995947;28;20615;-44
2022/02/05 12:22:04;;;;;;;29.20;27.93;;;25.90;45.30;;;;;;5031042;28;20951;-42
2022/02/05 12:25:04;;;;;;;29.00;27.80;;;26.00;45.50;;;;;;5027736;28;20474;-44
2022/02/05 12:27:33;;;;;;;30.60;29.20;;;26.10;45.00;;;;;;5031486;28;20818;-44
2022/02/05 12:30:38;;;;;;;27.43;26.13;;;26.30;44.50;;;;;;5031630;28;20503;-46
2022/02/05 12:33:06;;;;;;;24.63;23.60;;;26.30;44.20;;;;;;5031369;28;20500;-43
2022/02/05 12:35:36;;;;;;;26.17;25.07;;;26.40;44.30;;;;;;5031233;28;20452;-45
2022/02/05 12:38:04;;;;;;;26.03;24.93;;;26.30;44.20;;;;;;5031304;28;21017;-45
2022/02/05 12:40:40;;;;;;;26.33;25.10;;;26.20;44.20;;;;;;5031667;28;20448;-41
2022/02/05 12:43:08;;;;;;;24.27;23.27;;;26.30;44.50;;;;;;5031281;28;20467;-46
2022/02/05 12:45:48;;;;;;;27.43;26.20;;;26.20;44.00;;;;;;5031699;28;20954;-47
2022/02/05 12:48:24;;;;;;;25.07;23.90;;;26.00;44.00;;;;;;5032875;28;20444;-46
2022/02/05 12:51:01;;;;;;;25.60;24.40;;;25.90;44.30;;;;;;5035038;28;20449;-45
2022/02/05 12:53:35;;;;;;;25.60;24.40;;;25.90;44.70;;;;;;5034495;28;21004;-44
2022/02/05 12:56:13;;;;;;;26.37;25.27;;;25.90;44.40;;;;;;5035056;28;20449;-49
2022/02/05 12:58:55;;;;;;;26.43;25.20;;;26.00;44.50;;;;;;5035499;28;20507;-48
2022/02/05 13:01:22;;;;;;;25.90;24.70;;;26.20;43.90;;;;;;5034599;28;20480;-43
2022/02/05 13:03:49;;;;;;;26.53;25.23;;;26.20;43.60;;;;;;5034688;28;20480;-41
2022/02/05 13:06:18;;;;;;;28.23;27.03;;;26.10;43.70;;;;;;5034410;28;20476;-41
2022/02/05 13:08:48;;;;;;;28.27;27.17;;;26.20;43.40;;;;;;5034458;28;20453;-41
2022/02/05 13:11:20;;;;;;;26.93;25.73;;;26.10;43.60;;;;;;5034417;28;20449;-42
2022/02/05 13:13:52;;;;;;;26.47;25.37;;;26.00;43.70;;;;;;5033989;28;20477;-44
2022/02/05 13:16:20;;;;;;;27.50;26.30;;;26.00;43.70;;;;;;5034870;28;20445;-43
2022/02/05 13:19:02;;;;;;;27.53;26.43;;;26.00;43.90;;;;;;5034747;28;20512;-43
2022/02/05 13:27:29;;;;;;;28.53;27.33;;;26.20;42.70;;;;;;4987073;28;20430;-43
2022/02/05 13:33:35;;;;;;;26.33;25.23;;;26.30;42.50;;;;;;5034636;28;20441;-44
2022/02/05 13:35:29;;;;;;;25.60;24.40;;;26.30;42.40;;;;;;5034343;28;20523;-43
2022/02/05 13:37:59;;;;;;;26.37;25.23;;;26.30;42.50;;;;;;5034332;28;20517;-41
2022/02/05 13:40:30;;;;;;;24.13;23.03;;;26.30;42.20;;;;;;5034179;28;20476;-41
2022/02/05 13:43:06;;;;;;;25.77;24.67;;;26.30;42.00;;;;;;5034186;28;20465;-45
2022/02/05 13:45:37;;;;;;;25.90;24.80;;;26.40;41.90;;;;;;5033711;28;20472;-41
2022/02/05 13:48:05;;;;;;;27.37;26.27;;;26.50;42.10;;;;;;5033835;28;20442;-44
2022/02/05 13:50:34;;;;;;;28.37;27.23;;;26.50;41.90;;;;;;5033923;28;21134;-42
2022/02/05 13:53:06;;;;;;;30.97;29.67;;;26.50;41.70;;;;;;5033932;28;20472;-42
2022/02/05 13:55:36;;;;;;;29.47;28.17;;;26.40;41.40;;;;;;5033670;28;20532;-44
2022/02/05 13:58:05;;;;;;;26.70;25.60;;;26.40;41.40;;;;;;5033241;28;20483;-43
2022/02/05 14:00:50;;;;;;;27.63;26.53;;;26.40;41.00;;;;;;5033769;28;20503;-43
2022/02/05 14:03:28;;;;;;;27.07;25.97;;;26.50;40.90;;;;;;5033375;28;20473;-41
2022/02/05 14:06:03;;;;;;;26.37;25.37;;;26.50;41.20;;;;;;5034044;28;20441;-41
2022/02/05 14:08:34;;;;;;;28.03;27.03;;;26.50;41.10;;;;;;5033811;28;20444;-41
2022/02/05 14:11:02;;;;;;;29.33;28.03;;;26.40;41.00;;;;;;5033739;28;20455;-43
2022/02/05 14:13:29;;;;;;;29.13;27.93;;;26.40;41.20;;;;;;5033706;28;20465;-41
2022/02/05 14:15:59;;;;;;;27.20;26.10;;;26.30;41.30;;;;;;5033671;28;20445;-42
2022/02/05 14:18:28;;;;;;;26.30;25.20;;;26.40;41.30;;;;;;5033348;28;20489;-42
2022/02/05 14:20:57;;;;;;;26.27;25.07;;;26.40;41.30;;;;;;5033464;28;20485;-43
2022/02/05 14:23:27;;;;;;;23.97;22.97;;;26.60;41.10;;;;;;5033171;28;20511;-41
2022/02/05 14:26:01;;;;;;;24.93;23.93;;;26.50;40.80;;;;;;5033343;28;20456;-41
2022/02/05 14:28:41;;;;;;;26.80;25.73;;;26.60;41.10;;;;;;5033353;28;20455;-43
2022/02/05 14:31:12;;;;;;;28.67;27.47;;;26.60;40.80;;;;;;5033097;28;20518;-42
2022/02/05 14:36:40;;;;;;;26.50;25.50;;;26.80;40.70;;;;;;5020125;28;20442;-43
2022/02/05 14:41:56;;;;;;;24.93;23.93;;;26.90;40.10;;;;;;5033430;28;20503;-42
2022/02/05 14:44:23;;;;;;;22.10;21.20;;;26.90;40.40;;;;;;5032950;28;20465;-43
2022/02/05 14:46:51;;;;;;;24.63;23.70;;;26.90;40.40;;;;;;5032990;28;20477;-41